createdAt,value
2019-02-23T00:02:10.725Z,7.90
2019-02-23T00:04:39.119Z,8.00
2019-02-23T00:07:07.469Z,7.73
2019-02-23T00:09:35.731Z,7.77
2019-02-23T00:12:04.737Z,8.73
2019-02-23T00:14:33.075Z,8.73
2019-02-23T00:17:01.349Z,8.70
2019-02-23T00:19:29.635Z,8.67
2019-02-23T00:21:57.895Z,8.97
2019-02-23T00:24:26.189Z,9.20
2019-02-23T00:26:54.455Z,8.70
2019-02-23T00:29:22.761Z,9.70
2019-02-23T00:31:51.066Z,8.13
2019-02-23T00:34:19.335Z,9.30
2019-02-23T00:36:47.614Z,9.80
2019-02-23T00:39:15.894Z,9.90
2019-02-23T00:41:44.273Z,10.10
2019-02-23T00:44:12.588Z,19.23
2019-02-23T00:46:40.862Z,9.40
2019-02-23T00:49:09.136Z,9.90
2019-02-23T00:51:37.415Z,9.30
2019-02-23T00:54:05.720Z,9.80
2019-02-23T00:56:34.022Z,9.93
2019-02-23T00:59:02.285Z,9.87
2019-02-23T01:01:30.572Z,10.27
2019-02-23T01:03:58.870Z,10.03
2019-02-23T01:06:27.169Z,10.73
2019-02-23T01:08:55.447Z,10.50
2019-02-23T01:11:23.736Z,10.37
2019-02-23T01:13:52.009Z,10.70
2019-02-23T01:16:20.351Z,10.20
2019-02-23T01:18:48.750Z,9.90
2019-02-23T01:21:17.016Z,10.77
2019-02-23T01:23:45.299Z,10.47
2019-02-23T01:26:13.598Z,10.57
2019-02-23T01:28:41.878Z,11.27
2019-02-23T01:31:10.168Z,11.70
2019-02-23T01:33:38.450Z,10.93
2019-02-23T01:36:06.757Z,11.10
2019-02-23T01:38:35.042Z,10.20
2019-02-23T01:41:03.329Z,11.20
2019-02-23T01:43:31.592Z,10.90
2019-02-23T01:45:59.935Z,10.43
2019-02-23T01:48:28.269Z,11.00
2019-02-23T01:50:56.551Z,17.53
2019-02-23T01:53:24.842Z,12.37
2019-02-23T01:55:53.134Z,12.20
2019-02-23T01:58:21.498Z,11.40
2019-02-23T02:00:49.763Z,12.50
2019-02-23T02:03:18.051Z,12.30
2019-02-23T02:05:46.316Z,12.50
2019-02-23T02:08:14.678Z,12.07
2019-02-23T02:10:43.058Z,12.60
2019-02-23T02:13:11.334Z,12.00
2019-02-23T02:15:39.888Z,11.30
2019-02-23T02:18:08.172Z,12.00
2019-02-23T02:20:36.492Z,12.30
2019-02-23T02:23:04.895Z,12.70
2019-02-23T02:25:33.186Z,12.40
2019-02-23T02:28:01.460Z,11.70
2019-02-23T02:30:29.741Z,12.63
2019-02-23T02:32:58.031Z,11.73
2019-02-23T02:35:26.295Z,11.50
2019-02-23T02:37:54.707Z,11.63
2019-02-23T02:40:23.086Z,14.50
2019-02-23T02:42:51.329Z,12.13
2019-02-23T02:45:19.616Z,11.20
2019-02-23T02:47:47.904Z,11.33
2019-02-23T02:50:24.367Z,10.83
2019-02-23T02:52:46.216Z,11.90
2019-02-23T02:55:14.518Z,10.03
2019-02-23T02:57:42.817Z,11.33
2019-02-23T03:00:12.642Z,11.97
2019-02-23T03:02:41.010Z,11.33
2019-02-23T03:05:09.842Z,11.00
2019-02-23T03:07:38.129Z,10.57
2019-02-23T03:10:06.569Z,11.33
2019-02-23T03:12:34.850Z,12.77
2019-02-23T03:15:03.144Z,11.13
2019-02-23T03:17:31.455Z,13.07
2019-02-23T03:19:59.746Z,11.53
2019-02-23T03:22:28.021Z,11.70
2019-02-23T03:24:56.281Z,11.57
2019-02-23T03:27:24.609Z,11.50
2019-02-23T03:29:52.883Z,11.13
2019-02-23T03:32:21.172Z,11.40
2019-02-23T03:34:49.443Z,11.30
2019-02-23T03:37:17.715Z,12.00
2019-02-23T03:39:45.994Z,11.80
2019-02-23T03:42:14.376Z,11.37
2019-02-23T03:44:42.666Z,12.47
2019-02-23T03:47:10.938Z,11.23
2019-02-23T03:49:39.240Z,12.37
2019-02-23T03:52:07.518Z,11.80
2019-02-23T03:54:35.809Z,13.30
2019-02-23T03:57:04.293Z,12.13
2019-02-23T03:59:32.626Z,12.27
2019-02-23T04:02:00.939Z,13.13
2019-02-23T04:04:29.206Z,12.77
2019-02-23T04:06:57.502Z,12.87
2019-02-23T04:09:25.804Z,13.40
2019-02-23T04:11:54.073Z,13.03
2019-02-23T04:14:22.375Z,13.93
2019-02-23T04:16:50.690Z,12.50
2019-02-23T04:19:18.966Z,14.03
2019-02-23T04:21:47.250Z,12.53
2019-02-23T04:24:15.543Z,13.70
2019-02-23T04:26:43.824Z,13.73
2019-02-23T04:29:12.117Z,12.17
2019-02-23T04:31:40.431Z,13.60
2019-02-23T04:34:08.699Z,13.00
2019-02-23T04:36:36.987Z,14.00
2019-02-23T04:39:06.146Z,14.67
2019-02-23T04:41:34.422Z,13.00
2019-02-23T04:44:02.695Z,15.13
2019-02-23T04:46:31.024Z,15.27
2019-02-23T04:48:59.303Z,13.47
2019-02-23T04:51:27.669Z,15.00
2019-02-23T04:53:55.967Z,14.23
2019-02-23T04:56:24.248Z,14.80
2019-02-23T04:58:52.591Z,14.70
2019-02-23T05:01:20.880Z,14.30
2019-02-23T05:03:49.228Z,13.63
2019-02-23T05:06:17.511Z,14.40
2019-02-23T05:08:45.781Z,13.90
2019-02-23T05:11:14.068Z,14.30
2019-02-23T05:13:42.337Z,16.53
2019-02-23T05:16:10.639Z,15.67
2019-02-23T05:18:38.903Z,14.60
2019-02-23T05:21:07.216Z,16.23
2019-02-23T05:23:35.496Z,15.37
2019-02-23T05:26:03.759Z,15.30
2019-02-23T05:28:32.055Z,16.23
2019-02-23T05:31:00.325Z,16.83
2019-02-23T05:33:28.622Z,15.10
2019-02-23T05:35:56.919Z,16.77
2019-02-23T05:38:25.203Z,15.70
2019-02-23T05:40:53.498Z,15.37
2019-02-23T05:43:21.783Z,15.77
2019-02-23T05:45:50.082Z,15.43
2019-02-23T05:48:19.607Z,14.80
2019-02-23T05:50:48.053Z,14.93
2019-02-23T05:53:16.357Z,15.17
2019-02-23T05:55:44.641Z,14.17
2019-02-23T05:58:12.919Z,14.63
2019-02-23T06:00:41.207Z,16.23
2019-02-23T06:03:09.494Z,15.60
2019-02-23T06:05:37.759Z,15.17
2019-02-23T06:08:06.036Z,14.83
2019-02-23T06:10:34.341Z,16.10
2019-02-23T06:13:02.601Z,15.17
2019-02-23T06:15:30.894Z,16.13
2019-02-23T06:17:59.201Z,14.73
2019-02-23T06:20:27.487Z,16.47
2019-02-23T06:22:55.762Z,15.60
2019-02-23T06:25:24.033Z,15.63
2019-02-23T06:27:52.418Z,17.10
2019-02-23T06:30:21.013Z,14.83
2019-02-23T06:32:49.291Z,15.50
2019-02-23T06:35:17.570Z,16.23
2019-02-23T06:37:45.869Z,16.70
2019-02-23T06:40:14.141Z,16.23
2019-02-23T06:42:42.426Z,16.27
2019-02-23T06:45:12.594Z,15.33
2019-02-23T06:47:40.955Z,16.20
2019-02-23T06:50:09.322Z,16.00
2019-02-23T06:52:37.653Z,15.70
2019-02-23T06:55:07.204Z,16.70
2019-02-23T06:57:35.464Z,16.40
2019-02-23T07:00:05.828Z,15.20
2019-02-23T07:02:34.142Z,15.50
2019-02-23T07:05:02.434Z,15.47
2019-02-23T07:07:30.720Z,16.50
2019-02-23T07:09:58.991Z,15.90
2019-02-23T07:12:27.257Z,15.30
2019-02-23T07:14:55.561Z,16.37
2019-02-23T07:17:26.775Z,15.63
2019-02-23T07:19:55.072Z,15.20
2019-02-23T07:22:23.383Z,15.40
2019-02-23T07:24:51.678Z,15.80
2019-02-23T07:27:19.965Z,15.80
2019-02-23T07:29:48.235Z,15.83
2019-02-23T07:32:16.522Z,17.23
2019-02-23T07:34:44.793Z,15.97
2019-02-23T07:37:13.079Z,17.90
2019-02-23T07:39:41.359Z,15.57
2019-02-23T07:42:09.639Z,15.70
2019-02-23T07:44:37.926Z,17.03
2019-02-23T07:47:06.203Z,15.57
2019-02-23T07:49:34.471Z,16.40
2019-02-23T07:52:02.825Z,16.43
2019-02-23T07:54:31.092Z,17.30
2019-02-23T07:56:59.374Z,16.40
2019-02-23T07:59:27.669Z,17.50
2019-02-23T08:01:55.966Z,15.73
2019-02-23T08:04:24.229Z,15.53
2019-02-23T08:06:52.504Z,16.60
2019-02-23T08:09:20.840Z,15.20
2019-02-23T08:11:49.110Z,14.43
2019-02-23T08:14:17.392Z,16.73
2019-02-23T08:16:45.679Z,14.73
2019-02-23T08:19:13.966Z,15.60
2019-02-23T08:21:42.269Z,15.20
2019-02-23T08:24:10.560Z,15.63
2019-02-23T08:26:38.837Z,15.73
2019-02-23T08:29:07.140Z,15.73
2019-02-23T08:31:35.501Z,16.63
2019-02-23T08:34:03.784Z,15.10
2019-02-23T08:36:32.042Z,15.67
2019-02-23T08:39:00.390Z,16.17
2019-02-23T08:41:28.857Z,16.13
2019-02-23T08:43:57.134Z,15.60
2019-02-23T08:46:25.410Z,15.53
2019-02-23T08:48:53.707Z,15.57
2019-02-23T08:51:21.971Z,15.53
2019-02-23T08:53:50.270Z,14.20
2019-02-23T08:56:18.553Z,15.43
2019-02-23T08:58:47.057Z,15.70
2019-02-23T09:01:15.505Z,16.90
2019-02-23T09:03:43.796Z,14.83
2019-02-23T09:06:12.078Z,15.60
2019-02-23T09:08:40.424Z,15.13
2019-02-23T09:11:08.715Z,14.40
2019-02-23T09:13:37.068Z,13.93
2019-02-23T09:16:05.376Z,16.00
2019-02-23T09:18:33.656Z,15.13
2019-02-23T09:21:07.134Z,15.10
2019-02-23T09:23:35.410Z,15.40
2019-02-23T09:26:03.722Z,16.00
2019-02-23T09:28:32.039Z,15.47
2019-02-23T09:31:00.327Z,15.77
2019-02-23T09:33:28.623Z,14.80
2019-02-23T09:35:56.972Z,13.90
2019-02-23T09:38:25.259Z,14.40
2019-02-23T09:40:53.528Z,14.40
2019-02-23T09:43:21.829Z,14.00
2019-02-23T09:45:50.139Z,15.90
2019-02-23T09:48:18.494Z,14.80
2019-02-23T09:50:46.815Z,15.10
2019-02-23T09:53:15.095Z,13.90
2019-02-23T09:55:43.410Z,15.17
2019-02-23T09:58:11.692Z,15.10
2019-02-23T10:00:39.998Z,13.63
2019-02-23T10:03:08.371Z,14.57
2019-02-23T10:05:38.184Z,15.23
2019-02-23T10:08:06.652Z,14.97
2019-02-23T10:10:34.956Z,14.60
2019-02-23T10:13:03.230Z,14.80
2019-02-23T10:15:31.534Z,14.57
2019-02-23T10:17:59.820Z,15.07
2019-02-23T10:20:28.131Z,14.93
2019-02-23T10:22:56.419Z,14.47
2019-02-23T10:25:24.691Z,13.70
2019-02-23T10:27:53.018Z,14.53
2019-02-23T10:30:21.302Z,13.87
2019-02-23T10:32:49.605Z,14.60
2019-02-23T10:35:17.871Z,12.37
2019-02-23T10:37:46.468Z,13.30
2019-02-23T10:40:14.945Z,13.37
2019-02-23T10:42:43.234Z,13.23
2019-02-23T10:45:13.343Z,13.23
2019-02-23T10:47:41.749Z,13.40
2019-02-23T10:50:14.622Z,12.50
2019-02-23T10:52:42.895Z,12.97
2019-02-23T10:55:13.784Z,12.97
2019-02-23T10:57:42.084Z,13.13
2019-02-23T11:00:17.384Z,13.70
2019-02-23T11:02:45.754Z,13.90
2019-02-23T11:05:14.097Z,11.70
2019-02-23T11:07:42.428Z,12.07
2019-02-23T11:10:11.171Z,11.70
2019-02-23T11:12:39.619Z,12.70
2019-02-23T11:15:11.213Z,11.20
2019-02-23T11:17:39.505Z,12.90
2019-02-23T11:20:09.916Z,12.40
2019-02-23T11:22:38.212Z,12.20
2019-02-23T11:25:09.254Z,11.70
2019-02-23T11:27:37.650Z,11.37
2019-02-23T11:30:09.259Z,10.50
2019-02-23T11:32:37.607Z,11.47
2019-02-23T11:35:07.943Z,11.60
2019-02-23T11:37:36.254Z,11.10
2019-02-23T11:40:06.884Z,11.33
2019-02-23T11:42:35.184Z,10.97
2019-02-23T11:45:03.564Z,12.30
2019-02-23T11:47:31.872Z,10.57
2019-02-23T11:50:00.406Z,11.07
2019-02-23T11:52:28.843Z,11.30
2019-02-23T11:54:57.113Z,11.03
2019-02-23T11:57:25.419Z,11.53
2019-02-23T11:59:53.700Z,10.17
2019-02-23T12:02:21.979Z,11.03
2019-02-23T12:04:50.258Z,11.00
2019-02-23T12:07:18.545Z,10.77
2019-02-23T12:09:46.848Z,9.80
2019-02-23T12:12:15.142Z,10.70
2019-02-23T12:14:43.441Z,9.23
2019-02-23T12:17:11.741Z,9.60
2019-02-23T12:19:40.034Z,8.70
2019-02-23T12:22:12.381Z,9.60
2019-02-23T12:24:38.345Z,9.07
2019-02-23T12:27:06.626Z,9.57
2019-02-23T12:29:34.934Z,9.20
2019-02-23T12:32:03.219Z,9.03
2019-02-23T12:34:31.475Z,8.63
2019-02-23T12:36:59.761Z,9.10
2019-02-23T12:39:28.037Z,9.13
2019-02-23T12:41:56.309Z,8.97
2019-02-23T12:44:24.593Z,9.40
2019-02-23T12:46:52.950Z,9.67
2019-02-23T12:49:21.241Z,8.43
2019-02-23T12:51:49.537Z,9.10
2019-02-23T12:54:17.822Z,9.07
2019-02-23T12:56:46.092Z,8.80
2019-02-23T12:59:14.380Z,10.13
2019-02-23T13:01:42.669Z,10.20
2019-02-23T13:04:10.931Z,9.17
2019-02-23T13:06:39.195Z,9.20
2019-02-23T13:09:22.453Z,8.87
2019-02-23T13:12:10.489Z,9.30
2019-02-23T13:14:44.392Z,9.83
2019-02-23T13:17:15.876Z,9.70
2019-02-23T13:20:12.975Z,9.47
2019-02-23T13:22:50.408Z,10.00
2019-02-23T13:25:36.856Z,9.60
2019-02-23T13:28:41.590Z,10.03
2019-02-23T13:31:24.805Z,10.03
2019-02-23T13:34:08.137Z,9.70
2019-02-23T13:36:51.722Z,9.80
2019-02-23T13:39:44.628Z,9.63
2019-02-23T13:42:31.264Z,9.90
2019-02-23T13:45:08.507Z,10.37
2019-02-23T13:47:58.212Z,9.97
2019-02-23T13:50:38.372Z,9.97
2019-02-23T13:53:15.887Z,9.90
2019-02-23T13:56:02.451Z,9.63
2019-02-23T13:58:36.489Z,9.40
2019-02-23T14:01:07.975Z,9.53
2019-02-23T14:04:00.188Z,9.83
2019-02-23T14:06:55.689Z,9.07
2019-02-23T14:09:52.729Z,8.80
2019-02-23T14:12:40.960Z,9.10
2019-02-23T14:15:29.166Z,9.57
2019-02-23T14:18:21.543Z,9.90
2019-02-23T14:21:11.041Z,9.53
2019-02-23T14:23:45.592Z,9.60
2019-02-23T14:26:42.704Z,10.00
2019-02-23T14:29:34.643Z,8.60
2019-02-23T14:32:08.967Z,9.50
2019-02-23T14:34:48.983Z,8.67
2019-02-23T14:37:44.869Z,9.43
2019-02-23T14:40:33.672Z,9.43
2019-02-23T14:43:12.055Z,9.60
2019-02-23T14:45:55.350Z,10.33
2019-02-23T14:48:46.170Z,9.57
2019-02-23T14:51:17.621Z,8.60
2019-02-23T14:54:00.555Z,9.77
2019-02-23T14:56:56.201Z,9.27
2019-02-23T14:59:42.830Z,8.63
2019-02-23T15:02:38.629Z,8.30
2019-02-23T15:05:24.842Z,9.57
2019-02-23T15:08:12.731Z,7.63
2019-02-23T15:10:59.220Z,8.60
2019-02-23T15:13:39.537Z,8.57
2019-02-23T15:16:20.125Z,8.97
2019-02-23T15:19:23.362Z,8.47
2019-02-23T15:21:54.791Z,8.40
2019-02-23T15:24:28.857Z,8.87
2019-02-23T15:27:06.148Z,8.33
2019-02-23T15:29:46.858Z,9.27
2019-02-23T15:32:30.457Z,8.30
2019-02-23T15:35:24.558Z,8.90
2019-02-23T15:38:12.789Z,8.10
2019-02-23T15:41:02.500Z,9.23
2019-02-23T15:44:07.388Z,7.97
2019-02-23T15:46:53.918Z,8.47
2019-02-23T15:49:34.394Z,9.63
2019-02-23T15:52:03.650Z,10.27
2019-02-23T15:54:38.726Z,9.87
2019-02-23T15:57:13.410Z,8.90
2019-02-23T15:59:44.497Z,9.37
2019-02-23T16:02:13.038Z,10.67
2019-02-23T16:04:41.310Z,9.57
2019-02-23T16:07:09.592Z,9.80
2019-02-23T16:09:37.865Z,11.00
2019-02-23T16:12:06.161Z,9.20
2019-02-23T16:14:34.484Z,9.80
2019-02-23T16:17:02.706Z,9.47
2019-02-23T16:19:30.991Z,9.87
2019-02-23T16:21:59.325Z,18.07
2019-02-23T16:24:27.613Z,11.07
2019-02-23T16:26:55.873Z,9.87
2019-02-23T16:29:24.158Z,10.03
2019-02-23T16:31:52.494Z,9.87
2019-02-23T16:34:21.914Z,9.93
2019-02-23T16:36:50.210Z,10.27
2019-02-23T16:39:18.472Z,11.20
2019-02-23T16:41:46.747Z,10.30
2019-02-23T16:44:15.099Z,10.30
2019-02-23T16:46:46.277Z,10.70
2019-02-23T16:49:15.946Z,10.47
2019-02-23T16:51:44.290Z,10.63
2019-02-23T16:54:13.277Z,10.97
2019-02-23T16:56:41.556Z,10.30
2019-02-23T16:59:09.977Z,11.07
2019-02-23T17:01:38.238Z,10.70
2019-02-23T17:04:06.728Z,10.93
2019-02-23T17:06:35.014Z,10.33
2019-02-23T17:09:03.864Z,10.60
2019-02-23T17:11:32.165Z,11.70
2019-02-23T17:14:00.624Z,10.70
2019-02-23T17:16:29.224Z,10.73
2019-02-23T17:18:57.518Z,10.50
2019-02-23T17:21:25.799Z,10.47
2019-02-23T17:23:54.073Z,14.43
2019-02-23T17:26:22.365Z,14.83
2019-02-23T17:28:50.652Z,16.83
2019-02-23T17:31:18.946Z,15.33
2019-02-23T17:33:48.122Z,27.43
2019-02-23T17:36:16.422Z,15.13
2019-02-23T17:38:44.962Z,12.30
2019-02-23T17:41:13.387Z,14.60
2019-02-23T17:43:41.891Z,11.40
2019-02-23T17:46:10.102Z,12.20
2019-02-23T17:48:38.409Z,13.00
2019-02-23T17:51:06.678Z,11.93
2019-02-23T17:53:34.968Z,12.53
2019-02-23T17:56:03.281Z,11.03
2019-02-23T17:58:31.566Z,10.07
2019-02-23T18:00:59.965Z,11.47
2019-02-23T18:03:28.399Z,10.90
2019-02-23T18:05:56.688Z,12.33
2019-02-23T18:08:24.998Z,12.10
2019-02-23T18:10:53.309Z,12.03
2019-02-23T18:13:21.619Z,12.60
2019-02-23T18:15:49.912Z,13.33
2019-02-23T18:18:18.186Z,12.80
2019-02-23T18:20:48.234Z,15.00
2019-02-23T18:23:16.808Z,18.83
2019-02-23T18:25:45.307Z,18.80
2019-02-23T18:28:13.608Z,13.30
2019-02-23T18:30:41.877Z,13.70
2019-02-23T18:33:10.206Z,12.70
2019-02-23T18:35:38.491Z,16.97
2019-02-23T18:38:06.774Z,14.47
2019-02-23T18:40:35.067Z,13.77
2019-02-23T18:43:03.354Z,15.20
2019-02-23T18:45:31.634Z,11.90
2019-02-23T18:47:59.918Z,12.80
2019-02-23T18:50:28.190Z,12.37
2019-02-23T18:52:56.482Z,13.37
2019-02-23T18:55:24.762Z,12.40
2019-02-23T18:57:53.044Z,12.53
2019-02-23T19:00:24.337Z,12.33
2019-02-23T19:02:51.375Z,12.20
2019-02-23T19:05:19.674Z,34.43
2019-02-23T19:07:47.936Z,12.40
2019-02-23T19:10:16.222Z,12.80
2019-02-23T19:12:44.578Z,12.63
2019-02-23T19:15:15.895Z,12.87
2019-02-23T19:17:44.175Z,12.13
2019-02-23T19:20:14.217Z,12.33
2019-02-23T19:22:42.519Z,12.80
2019-02-23T19:25:11.473Z,12.77
2019-02-23T19:27:39.906Z,13.07
2019-02-23T19:30:11.583Z,11.20
2019-02-23T19:32:39.893Z,11.63
2019-02-23T19:35:08.557Z,12.20
2019-02-23T19:37:36.829Z,12.67
2019-02-23T19:40:07.562Z,13.00
2019-02-23T19:42:35.824Z,12.20
2019-02-23T19:45:06.330Z,11.47
2019-02-23T19:47:34.632Z,12.97
2019-02-23T19:50:04.768Z,11.90
2019-02-23T19:52:33.054Z,12.00
2019-02-23T19:55:01.414Z,12.17
2019-02-23T19:57:29.778Z,11.47
2019-02-23T19:59:58.042Z,9.90
2019-02-23T20:02:26.345Z,11.77
2019-02-23T20:04:54.623Z,11.80
2019-02-23T20:07:22.914Z,11.80
2019-02-23T20:09:51.186Z,11.03
2019-02-23T20:12:19.479Z,11.77
2019-02-23T20:14:47.746Z,10.87
2019-02-23T20:17:16.017Z,11.57
2019-02-23T20:19:44.330Z,13.00
2019-02-23T20:22:12.621Z,11.80
2019-02-23T20:24:40.922Z,13.00
2019-02-23T20:27:09.204Z,12.80
2019-02-23T20:29:37.491Z,11.80
2019-02-23T20:32:05.766Z,13.20
2019-02-23T20:34:34.055Z,13.37
2019-02-23T20:37:02.342Z,13.37
2019-02-23T20:39:30.615Z,12.50
2019-02-23T20:41:58.922Z,12.20
2019-02-23T20:44:27.201Z,12.50
2019-02-23T20:46:55.633Z,13.53
2019-02-23T20:49:23.934Z,14.73
2019-02-23T20:51:52.224Z,14.17
2019-02-23T20:54:20.494Z,16.40
2019-02-23T20:56:48.761Z,13.63
2019-02-23T20:59:17.058Z,12.67
2019-02-23T21:01:45.334Z,13.37
2019-02-23T21:04:13.611Z,13.90
2019-02-23T21:06:41.936Z,13.53
2019-02-23T21:09:10.318Z,12.97
2019-02-23T21:11:38.607Z,13.50
2019-02-23T21:14:06.902Z,12.43
2019-02-23T21:16:35.179Z,13.70
2019-02-23T21:19:03.454Z,15.00
2019-02-23T21:21:31.737Z,17.37
2019-02-23T21:24:00.011Z,17.13
2019-02-23T21:26:28.302Z,16.97
2019-02-23T21:28:56.569Z,16.60
2019-02-23T21:31:24.851Z,15.33
2019-02-23T21:33:53.146Z,17.37
2019-02-23T21:36:21.432Z,17.00
2019-02-23T21:38:49.740Z,16.47
2019-02-23T21:41:18.194Z,15.93
2019-02-23T21:43:46.457Z,12.83
2019-02-23T21:46:14.894Z,13.57
2019-02-23T21:48:43.256Z,12.40
2019-02-23T21:51:11.501Z,12.30
2019-02-23T21:53:39.790Z,12.57
2019-02-23T21:56:08.517Z,13.20
2019-02-23T21:58:37.230Z,12.53
2019-02-23T22:01:07.155Z,13.37
2019-02-23T22:03:37.246Z,13.53
2019-02-23T22:06:05.581Z,15.87
2019-02-23T22:08:33.837Z,14.03
2019-02-23T22:11:02.217Z,13.97
2019-02-23T22:13:30.492Z,15.10
2019-02-23T22:15:58.801Z,14.00
2019-02-23T22:18:27.097Z,14.20
2019-02-23T22:20:55.387Z,14.63
2019-02-23T22:23:23.709Z,14.43
2019-02-23T22:25:52.078Z,14.27
2019-02-23T22:28:20.370Z,13.27
2019-02-23T22:30:48.727Z,13.93
2019-02-23T22:33:17.038Z,13.43
2019-02-23T22:35:45.348Z,14.17
2019-02-23T22:38:13.655Z,12.00
2019-02-23T22:40:41.909Z,13.00
2019-02-23T22:43:10.230Z,17.03
2019-02-23T22:45:38.508Z,15.00
2019-02-23T22:48:06.789Z,12.83
2019-02-23T22:50:35.844Z,12.13
2019-02-23T22:53:06.596Z,13.20
2019-02-23T22:55:34.863Z,12.87
2019-02-23T22:58:03.146Z,13.53
2019-02-23T23:00:49.627Z,12.20
2019-02-23T23:03:18.112Z,12.93
2019-02-23T23:05:46.377Z,12.80
2019-02-23T23:08:14.645Z,11.10
2019-02-23T23:10:42.961Z,11.70
2019-02-23T23:13:11.278Z,19.80
2019-02-23T23:15:39.639Z,12.30
2019-02-23T23:18:08.016Z,12.47
2019-02-23T23:20:36.311Z,12.17
2019-02-23T23:23:04.652Z,11.80
2019-02-23T23:25:32.921Z,12.30
2019-02-23T23:28:01.219Z,11.77
2019-02-23T23:30:29.511Z,11.40
2019-02-23T23:32:57.885Z,11.60
2019-02-23T23:35:26.153Z,13.03
2019-02-23T23:37:54.455Z,11.50
2019-02-23T23:40:22.847Z,11.07
2019-02-23T23:42:57.951Z,10.73
2019-02-23T23:45:21.115Z,11.47
2019-02-23T23:47:49.497Z,11.30
2019-02-23T23:50:17.840Z,11.80
2019-02-23T23:52:46.112Z,12.13
2019-02-23T23:55:14.388Z,12.00
2019-02-23T23:57:42.685Z,11.47
